Time;durP1;ratioP1;P1;durP2;ratioP2;P2;SDS_P1;SDS_P2;PMS_P1;PMS_P2;Temp;Humidity;BMP_temperature;BMP_pressure;BME280_temperature;BME280_humidity;BME280_pressure;Samples;Min_cycle;Max_cycle;Signal;HPM_P1;HPM_P2
2022/01/07 00:00:16;;;;;;;47.45;17.42;;;;;;;-3.46;100.00;97024.88;4900641;29;20044;-64
2022/01/07 00:02:43;;;;;;;64.35;18.92;;;;;;;-3.46;100.00;97022.19;4904449;29;20044;-67
2022/01/07 00:05:09;;;;;;;58.83;18.40;;;;;;;-3.42;100.00;97026.97;4901293;29;20044;-67
2022/01/07 00:07:35;;;;;;;50.60;18.30;;;;;;;-3.40;100.00;97030.19;4905918;29;20052;-68
2022/01/07 00:10:00;;;;;;;58.65;19.70;;;;;;;-3.40;100.00;97025.66;4905636;29;20050;-68
2022/01/07 00:12:26;;;;;;;55.13;19.20;;;;;;;-3.41;100.00;97024.03;4900866;29;20078;-68
2022/01/07 00:14:51;;;;;;;59.63;19.52;;;;;;;-3.36;100.00;97021.38;4905306;29;20051;-66
2022/01/07 00:17:17;;;;;;;50.15;18.08;;;;;;;-3.33;100.00;97011.97;4899058;29;20044;-68
2022/01/07 00:19:43;;;;;;;53.60;20.13;;;;;;;-3.32;100.00;97009.03;4904181;29;20485;-66
2022/01/07 00:22:08;;;;;;;66.10;21.38;;;;;;;-3.32;100.00;97010.91;4900340;29;20048;-67
2022/01/07 00:24:34;;;;;;;59.58;18.75;;;;;;;-3.26;100.00;97007.16;4919568;29;20119;-67
2022/01/07 00:26:59;;;;;;;54.10;18.95;;;;;;;-3.27;100.00;97008.25;4905481;29;20580;-66
2022/01/07 00:29:24;;;;;;;55.42;19.02;;;;;;;-3.23;100.00;97003.16;4900276;29;20139;-66
2022/01/07 00:31:50;;;;;;;50.55;19.00;;;;;;;-3.23;100.00;96998.59;4926304;28;20119;-68
2022/01/07 00:34:15;;;;;;;50.35;19.15;;;;;;;-3.28;100.00;96991.38;4910221;29;20036;-66
2022/01/07 00:36:41;;;;;;;66.72;20.35;;;;;;;-3.25;100.00;96984.66;4908617;29;20478;-67
2022/01/07 00:39:06;;;;;;;53.28;20.58;;;;;;;-3.18;100.00;96979.03;4900200;29;20044;-67
2022/01/07 00:41:32;;;;;;;54.30;19.35;;;;;;;-3.03;100.00;96980.88;4904832;29;20044;-67
2022/01/07 00:43:57;;;;;;;51.28;20.20;;;;;;;-3.00;100.00;96983.00;4904779;29;20115;-65
2022/01/07 00:46:23;;;;;;;49.35;20.15;;;;;;;-3.17;100.00;96977.94;4898084;29;20056;-65
2022/01/07 00:48:48;;;;;;;55.38;19.70;;;;;;;-3.17;100.00;96977.94;4904839;29;20082;-67
2022/01/07 00:51:14;;;;;;;55.03;19.15;;;;;;;-3.06;100.00;96976.88;4899654;29;20067;-67
2022/01/07 00:53:41;;;;;;;51.10;19.33;;;;;;;-2.91;100.00;96978.69;4912072;29;20115;-68
2022/01/07 00:56:07;;;;;;;54.33;20.27;;;;;;;-2.90;100.00;96981.09;4907930;29;20036;-67
2022/01/07 00:58:32;;;;;;;46.47;19.13;;;;;;;-2.89;100.00;96982.69;4913441;29;20055;-67
2022/01/07 01:00:58;;;;;;;56.80;19.35;;;;;;;-2.85;100.00;96976.78;4906073;28;20052;-66
2022/01/07 01:03:23;;;;;;;49.25;19.85;;;;;;;-2.95;100.00;96978.44;4900664;29;20044;-66
2022/01/07 01:05:49;;;;;;;48.28;19.77;;;;;;;-3.00;100.00;96986.50;4905479;29;20080;-67
2022/01/07 01:08:15;;;;;;;55.03;19.13;;;;;;;-2.85;100.00;96974.91;4899686;29;20131;-66
2022/01/07 01:10:41;;;;;;;47.67;19.45;;;;;;;-2.95;100.00;96975.75;4907463;29;20447;-66
2022/01/07 01:13:06;;;;;;;46.35;18.58;;;;;;;-3.03;100.00;96973.63;4908795;29;20111;-66
2022/01/07 01:15:32;;;;;;;49.42;20.10;;;;;;;-2.90;100.00;96969.56;4910310;29;20074;-65
2022/01/07 01:17:59;;;;;;;55.67;20.40;;;;;;;-3.05;100.00;96974.97;4904833;29;20111;-67
2022/01/07 01:20:25;;;;;;;53.90;19.33;;;;;;;-3.07;100.00;96977.94;4899722;29;20822;-64
2022/01/07 01:22:51;;;;;;;55.15;19.85;;;;;;;-2.84;100.00;96978.41;4903188;29;20047;-68
2022/01/07 01:25:17;;;;;;;54.08;19.65;;;;;;;-2.50;100.00;96986.59;4898370;29;20048;-65
2022/01/07 01:27:42;;;;;;;51.00;19.58;;;;;;;-2.36;100.00;96976.88;4901663;29;20048;-66
2022/01/07 01:30:12;;;;;;;48.75;19.55;;;;;;;-2.61;100.00;96982.31;4898628;29;20040;-68
2022/01/07 01:32:38;;;;;;;48.72;19.30;;;;;;;-2.59;100.00;96981.00;4904734;29;20051;-64
2022/01/07 01:35:07;;;;;;;56.28;20.20;;;;;;;-2.29;100.00;96989.16;4900440;29;20048;-62
2022/01/07 01:37:32;;;;;;;50.55;18.40;;;;;;;-2.20;100.00;96982.94;4902912;29;20199;-66
2022/01/07 01:39:58;;;;;;;49.10;18.65;;;;;;;-2.39;100.00;96981.97;4899337;29;20051;-67
2022/01/07 01:42:24;;;;;;;48.03;18.33;;;;;;;-2.62;100.00;96978.84;4910746;29;20483;-63
2022/01/07 01:44:49;;;;;;;44.08;16.67;;;;;;;-2.57;100.00;96983.41;4926588;28;20036;-64
2022/01/07 01:47:14;;;;;;;45.15;17.27;;;;;;;-2.55;100.00;96974.00;4915876;29;20466;-67
2022/01/07 01:49:40;;;;;;;49.25;18.23;;;;;;;-2.39;100.00;96971.25;4906871;29;20060;-63
2022/01/07 01:52:06;;;;;;;45.13;15.75;;;;;;;-2.36;100.00;96968.81;4913268;29;20076;-66
2022/01/07 01:54:32;;;;;;;40.55;16.42;;;;;;;-2.62;100.00;96965.44;4905708;28;20103;-64
2022/01/07 01:56:57;;;;;;;43.17;15.98;;;;;;;-2.62;100.00;96956.59;4922426;28;20048;-63
2022/01/07 01:59:28;;;;;;;40.30;15.77;;;;;;;-2.65;100.00;96957.16;4910981;28;20800;-66
2022/01/07 02:01:54;;;;;;;41.92;16.27;;;;;;;-2.52;100.00;96956.53;4923771;28;20060;-65
2022/01/07 02:04:20;;;;;;;40.90;17.15;;;;;;;-2.29;100.00;96962.34;4917178;28;20044;-67
2022/01/07 02:06:46;;;;;;;35.45;15.63;;;;;;;-2.51;100.00;96963.53;4918683;28;20131;-67
2022/01/07 02:09:11;;;;;;;40.35;16.27;;;;;;;-2.53;100.00;96957.63;4894028;29;20435;-67
2022/01/07 02:11:37;;;;;;;37.38;15.15;;;;;;;-2.23;100.00;96954.00;4905675;29;20083;-66
2022/01/07 02:14:02;;;;;;;37.00;16.15;;;;;;;-2.21;100.00;96953.72;4902810;29;20044;-69
2022/01/07 02:16:28;;;;;;;40.13;16.20;;;;;;;-2.58;100.00;96957.66;4901096;29;20055;-64
2022/01/07 02:18:54;;;;;;;41.47;16.80;;;;;;;-2.62;100.00;96952.03;4901690;29;20176;-65
2022/01/07 02:21:20;;;;;;;36.15;16.45;;;;;;;-2.66;100.00;96952.88;4901517;29;20048;-67
2022/01/07 02:23:46;;;;;;;38.53;16.80;;;;;;;-2.69;100.00;96954.22;4906549;29;20103;-64
2022/01/07 02:26:13;;;;;;;37.85;17.85;;;;;;;-2.65;100.00;96960.63;4901824;29;20377;-66
2022/01/07 02:28:40;;;;;;;37.92;16.58;;;;;;;-2.70;100.00;96958.78;4906731;29;20062;-64
2022/01/07 02:31:06;;;;;;;36.88;15.52;;;;;;;-2.79;100.00;96955.06;4902948;29;20561;-65
2022/01/07 02:33:31;;;;;;;36.17;15.07;;;;;;;-2.69;100.00;96955.00;4907575;29;20048;-65
2022/01/07 02:35:57;;;;;;;39.33;15.35;;;;;;;-2.64;100.00;96956.09;4907494;29;20032;-65
2022/01/07 02:38:23;;;;;;;40.85;15.85;;;;;;;-2.65;100.00;96951.78;4900629;29;20063;-64
2022/01/07 02:40:48;;;;;;;36.45;15.38;;;;;;;-2.83;100.00;96954.00;4906594;29;20036;-65
2022/01/07 02:43:14;;;;;;;42.97;17.15;;;;;;;-2.85;100.00;96948.09;4902352;29;20087;-67
2022/01/07 02:45:40;;;;;;;40.10;16.45;;;;;;;-2.73;100.00;96953.16;4906492;29;20107;-65
2022/01/07 02:48:05;;;;;;;42.22;16.50;;;;;;;-2.83;100.00;96948.63;4913550;28;20051;-65
2022/01/07 02:50:37;;;;;;;43.65;18.23;;;;;;;-2.88;100.00;96954.81;4925276;28;20123;-67
2022/01/07 02:53:04;;;;;;;45.72;17.13;;;;;;;-2.89;100.00;96953.22;4923224;28;20052;-70
2022/01/07 02:55:30;;;;;;;45.15;17.40;;;;;;;-2.89;100.00;96958.56;4924914;28;20040;-65
2022/01/07 02:57:55;;;;;;;46.17;17.38;;;;;;;-2.89;100.00;96952.41;4925874;28;20050;-68
2022/01/07 03:00:23;;;;;;;40.85;15.25;;;;;;;-2.84;100.00;96952.41;4920568;28;20509;-65
2022/01/07 03:02:50;;;;;;;48.35;17.75;;;;;;;-2.81;100.00;96935.78;4919070;28;20039;-65
2022/01/07 03:05:17;;;;;;;46.15;16.88;;;;;;;-2.87;100.00;96944.91;4912634;28;20772;-70
2022/01/07 03:07:44;;;;;;;43.75;16.38;;;;;;;-2.88;100.00;96946.00;4925058;28;20055;-66
2022/01/07 03:10:10;;;;;;;51.80;17.88;;;;;;;-2.81;100.00;96934.94;4920842;28;20078;-62
2022/01/07 03:12:37;;;;;;;45.85;16.45;;;;;;;-2.85;100.00;96929.34;4925103;28;20067;-61
2022/01/07 03:15:05;;;;;;;50.08;17.42;;;;;;;-2.88;100.00;96928.03;4906681;29;20055;-70
2022/01/07 03:17:31;;;;;;;43.25;15.88;;;;;;;-2.74;100.00;96917.50;4906021;29;20036;-65
2022/01/07 03:19:56;;;;;;;40.38;16.25;;;;;;;-2.81;100.00;96919.69;4914734;29;20055;-66
2022/01/07 03:22:22;;;;;;;45.13;16.63;;;;;;;-2.68;100.00;96918.28;4915785;29;20056;-68
2022/01/07 03:24:47;;;;;;;42.97;16.15;;;;;;;-2.66;100.00;96923.38;4911864;29;20138;-66
2022/01/07 03:27:13;;;;;;;44.17;17.25;;;;;;;-2.82;100.00;96917.28;4902111;29;20150;-68
2022/01/07 03:29:38;;;;;;;41.92;16.45;;;;;;;-2.85;100.00;96923.97;4906191;29;20100;-65
2022/01/07 03:32:04;;;;;;;44.70;17.70;;;;;;;-2.86;100.00;96919.72;4901323;29;20044;-67
2022/01/07 03:34:29;;;;;;;47.40;17.38;;;;;;;-2.81;100.00;96916.19;4906078;29;20036;-62
2022/01/07 03:36:55;;;;;;;42.33;15.73;;;;;;;-2.74;100.00;96920.19;4904066;29;20051;-65
2022/01/07 03:39:20;;;;;;;42.72;16.05;;;;;;;-2.59;100.00;96924.69;4899877;29;20114;-66
2022/01/07 03:41:46;;;;;;;42.78;16.20;;;;;;;-2.52;100.00;96922.50;4905207;29;20064;-63
2022/01/07 03:44:11;;;;;;;37.97;15.90;;;;;;;-2.62;100.00;96927.91;4900680;29;20044;-67
2022/01/07 03:46:37;;;;;;;44.08;17.90;;;;;;;-2.65;100.00;96922.28;4904602;29;20473;-66
2022/01/07 03:49:02;;;;;;;39.42;16.23;;;;;;;-2.74;100.00;96920.19;4904029;29;20048;-69
2022/01/07 03:51:28;;;;;;;37.95;16.88;;;;;;;-2.81;100.00;96925.06;4903146;29;20052;-65
2022/01/07 03:53:53;;;;;;;46.83;17.67;;;;;;;-2.81;100.00;96919.69;4905485;29;20068;-67
2022/01/07 03:56:20;;;;;;;43.20;16.33;;;;;;;-2.73;100.00;96921.78;4898979;29;20095;-67
2022/01/07 03:58:46;;;;;;;42.22;17.05;;;;;;;-2.59;100.00;96926.53;4905424;29;20036;-67
2022/01/07 04:01:12;;;;;;;39.92;15.93;;;;;;;-2.52;100.00;96921.66;4900319;29;20513;-67
2022/01/07 04:03:37;;;;;;;49.50;16.45;;;;;;;-2.62;100.00;96921.75;4907774;28;20047;-64
2022/01/07 04:06:03;;;;;;;40.97;16.35;;;;;;;-2.69;100.00;96914.00;4913186;28;20154;-67
2022/01/07 04:08:29;;;;;;;41.30;15.38;;;;;;;-2.74;100.00;96905.97;4923084;28;20166;-63
2022/01/07 04:10:55;;;;;;;43.97;16.92;;;;;;;-2.80;100.00;96902.50;4907960;29;20140;-65
2022/01/07 04:13:20;;;;;;;44.00;17.63;;;;;;;-2.81;100.00;96900.94;4918074;29;20044;-67
2022/01/07 04:15:46;;;;;;;46.85;17.60;;;;;;;-2.81;100.00;96906.28;4921560;29;20068;-64
2022/01/07 04:18:11;;;;;;;47.33;17.90;;;;;;;-2.79;100.00;96906.00;4928902;29;20036;-65
2022/01/07 04:20:37;;;;;;;43.17;16.90;;;;;;;-2.70;100.00;96910.53;4906895;29;20046;-67
2022/01/07 04:23:04;;;;;;;45.75;16.48;;;;;;;-2.59;100.00;96913.13;4907838;29;20445;-68
2022/01/07 04:25:30;;;;;;;41.30;16.20;;;;;;;-2.31;100.00;96917.78;4904904;29;20047;-64
2022/01/07 04:28:07;;;;;;;45.13;17.15;;;;;;;-2.13;100.00;96926.28;4904696;29;20040;-63
2022/01/07 04:30:36;;;;;;;42.80;15.70;;;;;;;-1.99;100.00;96921.09;4904011;29;20808;-66
2022/01/07 04:33:04;;;;;;;35.88;14.40;;;;;;;-1.76;100.00;96917.69;4904570;29;20055;-68
2022/01/07 04:35:31;;;;;;;38.67;15.43;;;;;;;-1.80;100.00;96932.75;4904494;29;20044;-66
2022/01/07 04:37:57;;;;;;;41.65;17.10;;;;;;;-1.80;100.00;96913.97;4904539;29;20232;-64
2022/01/07 04:40:23;;;;;;;30.38;14.32;;;;;;;-2.27;100.00;96922.63;4900526;29;20047;-65
2022/01/07 04:42:48;;;;;;;36.28;14.73;;;;;;;-2.46;100.00;96936.69;4905399;29;20043;-63
2022/01/07 04:45:15;;;;;;;36.88;14.82;;;;;;;-2.31;100.00;96933.88;4907711;29;20047;-66
2022/01/07 04:47:41;;;;;;;32.47;14.30;;;;;;;-2.18;100.00;96947.78;4919767;28;20080;-66
2022/01/07 04:50:13;;;;;;;32.60;14.50;;;;;;;-1.89;100.00;96942.50;4922116;28;20047;-64
2022/01/07 04:52:40;;;;;;;38.65;15.88;;;;;;;-1.57;100.00;96943.84;4914047;28;20577;-63
2022/01/07 04:55:07;;;;;;;36.67;15.13;;;;;;;-1.69;100.00;96936.16;4899969;29;20043;-64
2022/01/07 04:57:32;;;;;;;34.63;14.75;;;;;;;-1.91;100.00;96947.31;4904272;29;20127;-63
2022/01/07 04:59:57;;;;;;;34.63;14.45;;;;;;;-1.92;100.00;96941.16;4914724;28;20127;-64
2022/01/07 05:02:23;;;;;;;29.15;13.63;;;;;;;-1.88;100.00;96943.28;4899463;29;20910;-64
2022/01/07 05:04:48;;;;;;;29.13;13.10;;;;;;;-1.68;100.00;96947.69;4903623;29;20075;-65
2022/01/07 05:07:16;;;;;;;33.88;13.93;;;;;;;-1.58;100.00;96945.72;4912126;28;20052;-65
2022/01/07 05:09:42;;;;;;;34.58;14.35;;;;;;;-1.47;100.00;96946.44;4895540;29;20119;-64
2022/01/07 05:12:08;;;;;;;30.17;14.15;;;;;;;-1.39;100.00;96942.31;4899232;29;20119;-66
2022/01/07 05:14:33;;;;;;;33.70;14.27;;;;;;;-1.35;100.00;96946.88;4904115;29;20623;-65
2022/01/07 05:16:59;;;;;;;40.17;15.50;;;;;;;-1.26;100.00;96947.06;4903497;29;20139;-67
2022/01/07 05:19:24;;;;;;;31.90;13.20;;;;;;;-1.26;100.00;96952.44;4900450;29;20052;-65
2022/01/07 05:21:50;;;;;;;31.27;13.88;;;;;;;-1.27;100.00;96947.34;4903901;29;20565;-66
2022/01/07 05:24:15;;;;;;;25.98;13.05;;;;;;;-1.28;100.00;96953.78;4899793;29;20413;-67
2022/01/07 05:26:41;;;;;;;32.53;13.73;;;;;;;-1.32;100.00;96948.16;4903013;29;20040;-66
2022/01/07 05:29:06;;;;;;;27.38;13.00;;;;;;;-1.18;100.00;96949.09;4897565;29;20128;-66
2022/01/07 05:31:32;;;;;;;60.47;19.00;;;;;;;-1.16;100.00;96948.81;4903279;29;20044;-66
2022/01/07 05:33:57;;;;;;;48.75;16.77;;;;;;;-1.26;100.00;96948.91;4903434;29;20052;-68
2022/01/07 05:36:23;;;;;;;31.58;13.18;;;;;;;-1.18;100.00;96962.53;4896973;28;20491;-64
2022/01/07 05:38:49;;;;;;;24.33;11.77;;;;;;;-1.16;100.00;96956.88;4910521;29;20036;-67
2022/01/07 05:41:16;;;;;;;20.58;11.93;;;;;;;-1.39;100.00;96948.53;4906550;29;20044;-64
2022/01/07 05:43:41;;;;;;;21.42;12.27;;;;;;;-1.45;100.00;96954.22;4898116;29;20036;-63
2022/01/07 05:46:10;;;;;;;18.48;10.88;;;;;;;-1.38;100.00;96952.00;4898439;29;20052;-62
2022/01/07 05:48:36;;;;;;;22.23;11.32;;;;;;;-1.38;100.00;96960.06;4903029;29;20506;-64
2022/01/07 05:51:02;;;;;;;22.05;10.93;;;;;;;-1.38;100.00;96952.00;4903192;29;20068;-69
2022/01/07 05:53:27;;;;;;;18.10;9.13;;;;;;;-1.52;100.00;96956.44;4914841;29;20139;-67
2022/01/07 05:55:53;;;;;;;18.90;11.27;;;;;;;-1.59;100.00;96964.81;4906266;29;20119;-65
2022/01/07 05:58:18;;;;;;;15.95;9.82;;;;;;;-1.51;100.00;96952.66;4901558;29;20092;-66
2022/01/07 06:00:43;;;;;;;19.88;10.10;;;;;;;-1.40;100.00;96963.03;4906835;29;20055;-66
2022/01/07 06:03:09;;;;;;;16.55;9.68;;;;;;;-1.47;100.00;96959.06;4917368;29;20398;-66
2022/01/07 06:05:34;;;;;;;17.60;9.10;;;;;;;-1.49;100.00;96953.97;4908327;29;20040;-64
2022/01/07 06:08:00;;;;;;;17.25;9.18;;;;;;;-1.40;100.00;96962.22;4922276;29;20048;-65
2022/01/07 06:10:25;;;;;;;15.43;9.27;;;;;;;-1.44;100.00;96955.81;4915511;29;20048;-65
2022/01/07 06:12:51;;;;;;;17.20;9.25;;;;;;;-1.31;100.00;96960.53;4914158;29;20043;-67
2022/01/07 06:15:16;;;;;;;12.52;8.30;;;;;;;-1.19;100.00;96960.13;4907230;28;20036;-66
2022/01/07 06:17:42;;;;;;;17.90;8.38;;;;;;;-1.36;100.00;96958.69;4903474;29;20040;-66
2022/01/07 06:20:08;;;;;;;14.18;8.45;;;;;;;-1.43;100.00;96960.91;4900504;29;20071;-64
2022/01/07 06:22:36;;;;;;;15.75;9.27;;;;;;;-1.47;100.00;96961.75;4907094;29;20052;-65
2022/01/07 06:25:04;;;;;;;16.85;8.43;;;;;;;-1.45;100.00;96963.06;4905189;29;20044;-69
2022/01/07 06:27:30;;;;;;;13.48;7.65;;;;;;;-1.32;100.00;96948.16;4920126;28;20048;-63
2022/01/07 06:29:57;;;;;;;14.02;8.65;;;;;;;-1.23;100.00;96945.69;4906304;28;20490;-67
2022/01/07 06:32:23;;;;;;;12.65;7.80;;;;;;;-1.30;100.00;96951.38;4902072;29;20059;-65
2022/01/07 06:34:49;;;;;;;16.55;8.18;;;;;;;-1.32;100.00;96945.47;4907162;29;20048;-66
2022/01/07 06:37:15;;;;;;;13.13;7.82;;;;;;;-1.14;100.00;96957.41;4900694;29;20140;-67
2022/01/07 06:39:40;;;;;;;17.45;8.50;;;;;;;-1.08;100.00;96958.16;4906503;29;20118;-64
2022/01/07 06:42:06;;;;;;;12.63;7.55;;;;;;;-1.09;100.00;96957.34;4900567;29;20044;-66
2022/01/07 06:44:32;;;;;;;14.45;8.60;;;;;;;-1.06;100.00;96947.91;4904059;29;20050;-66
2022/01/07 06:46:58;;;;;;;13.35;8.15;;;;;;;-1.16;100.00;96954.19;4906916;29;20040;-66
2022/01/07 06:49:23;;;;;;;14.15;8.77;;;;;;;-1.12;100.00;96957.91;4901758;29;20048;-65
2022/01/07 06:51:50;;;;;;;15.65;8.57;;;;;;;-1.15;100.00;96953.13;4906465;29;20044;-67
2022/01/07 06:54:16;;;;;;;14.65;7.82;;;;;;;-1.12;100.00;96949.06;4901575;29;20378;-68
2022/01/07 06:56:43;;;;;;;18.33;8.90;;;;;;;-1.13;100.00;96945.56;4905434;29;20067;-62
2022/01/07 06:59:09;;;;;;;15.30;9.18;;;;;;;-1.27;100.00;96952.72;4903843;29;20043;-67
2022/01/07 07:01:35;;;;;;;17.08;9.32;;;;;;;-1.26;100.00;96949.75;4906724;29;20044;-66
2022/01/07 07:04:00;;;;;;;20.08;9.45;;;;;;;-1.12;100.00;96955.22;4906478;29;20044;-67
2022/01/07 07:06:26;;;;;;;15.77;9.90;;;;;;;-1.06;100.00;96958.66;4901460;29;20048;-66
2022/01/07 07:08:52;;;;;;;19.42;10.52;;;;;;;-1.08;100.00;96958.97;4905913;29;20059;-64
2022/01/07 07:11:17;;;;;;;17.92;10.38;;;;;;;-0.98;100.00;96953.47;4900335;29;20048;-64
2022/01/07 07:13:42;;;;;;;16.20;9.02;;;;;;;-1.01;100.00;96953.22;4906419;29;20127;-66
2022/01/07 07:16:08;;;;;;;14.48;9.10;;;;;;;-0.98;100.00;96950.78;4913113;28;20116;-65
2022/01/07 07:18:33;;;;;;;18.77;9.85;;;;;;;-1.00;100.00;96961.03;4903344;29;20056;-65
2022/01/07 07:20:59;;;;;;;14.93;8.30;;;;;;;-1.06;100.00;96958.66;4906239;29;20036;-65
2022/01/07 07:23:24;;;;;;;17.65;9.45;;;;;;;-1.20;100.00;96959.34;4901745;29;20699;-67
2022/01/07 07:25:51;;;;;;;16.42;9.10;;;;;;;-1.11;100.00;96962.22;4904505;29;20051;-67
2022/01/07 07:28:17;;;;;;;20.75;10.00;;;;;;;-1.12;100.00;96965.97;4901352;29;20052;-67
2022/01/07 07:30:42;;;;;;;16.50;9.18;;;;;;;-1.06;100.00;96964.03;4906646;29;20184;-63
2022/01/07 07:38:39;;;;;;;18.65;10.40;;;;;;;-1.04;100.00;96954.63;4906197;29;20055;-62
2022/01/07 07:41:06;;;;;;;17.67;9.55;;;;;;;-1.08;100.00;96961.66;4901114;29;20505;-69
2022/01/07 07:43:33;;;;;;;16.77;8.10;;;;;;;-1.01;100.00;96967.50;4906356;29;20158;-66
2022/01/07 07:45:59;;;;;;;17.80;9.93;;;;;;;-1.04;100.00;96956.50;4906842;29;20099;-66
2022/01/07 07:48:24;;;;;;;17.20;9.80;;;;;;;-1.11;100.00;96961.44;4902259;29;20056;-66
2022/01/07 07:50:50;;;;;;;19.20;9.55;;;;;;;-1.19;100.00;96962.81;4906335;29;20095;-64
2022/01/07 07:53:16;;;;;;;15.88;8.90;;;;;;;-1.11;100.00;96964.91;4914858;29;20048;-66
2022/01/07 07:55:41;;;;;;;19.10;8.65;;;;;;;-1.02;100.00;96962.41;4904884;29;20044;-65
2022/01/07 07:58:07;;;;;;;23.20;9.55;;;;;;;-1.00;100.00;96952.16;4905079;29;20044;-65
2022/01/07 08:00:32;;;;;;;27.60;13.93;;;;;;;-1.06;100.00;96964.03;4908327;29;20143;-67
2022/01/07 08:02:58;;;;;;;30.80;14.57;;;;;;;-1.04;100.00;96951.94;4907949;29;20067;-67
2022/01/07 08:05:24;;;;;;;16.23;9.27;;;;;;;-1.11;100.00;96956.06;4901136;29;20460;-69
2022/01/07 08:07:49;;;;;;;15.70;8.52;;;;;;;-1.06;100.00;96958.66;4905662;29;20055;-66
2022/01/07 08:10:22;;;;;;;17.20;9.23;;;;;;;-1.12;100.00;96957.91;4900499;29;20036;-68
2022/01/07 08:13:15;;;;;;;23.88;10.43;;;;;;;-1.02;100.00;96965.88;4904955;29;20577;-63
2022/01/07 08:18:24;;;;;;;21.95;9.93;;;;;;;-1.10;100.00;96960.31;4904664;29;20668;-63
2022/01/07 08:20:57;;;;;;;22.50;9.77;;;;;;;-1.00;100.00;96960.22;4906525;29;20036;-67
2022/01/07 08:23:22;;;;;;;15.73;8.52;;;;;;;-0.94;100.00;96951.00;4902432;29;20051;-63
2022/01/07 08:25:48;;;;;;;26.88;10.55;;;;;;;-0.83;100.00;96947.13;4904520;29;20056;-67
2022/01/07 08:28:15;;;;;;;17.13;8.70;;;;;;;-0.72;100.00;96944.31;4901344;29;20152;-66
2022/01/07 08:36:11;;;;;;;19.42;8.95;;;;;;;-0.80;100.00;96937.69;4912860;29;20055;-65
2022/01/07 08:38:37;;;;;;;15.65;8.57;;;;;;;-0.89;100.00;96936.72;4910952;29;20048;-67
2022/01/07 08:41:02;;;;;;;13.52;7.93;;;;;;;-0.93;100.00;96939.19;4903151;29;20052;-68
2022/01/07 08:43:28;;;;;;;15.25;7.53;;;;;;;-1.07;100.00;96936.34;4904457;29;20040;-66
2022/01/07 08:45:54;;;;;;;15.98;8.60;;;;;;;-1.09;100.00;96927.78;4903902;29;20044;-64
2022/01/07 08:48:19;;;;;;;16.45;7.82;;;;;;;-0.97;100.00;96924.72;4900211;29;20085;-64
2022/01/07 08:50:44;;;;;;;42.25;14.02;;;;;;;-0.88;100.00;96925.69;4903779;29;20072;-67
2022/01/07 08:53:11;;;;;;;30.17;12.77;;;;;;;-0.68;100.00;96919.25;4908095;29;20044;-64
2022/01/07 08:55:36;;;;;;;20.63;9.13;;;;;;;-0.34;99.27;96917.44;4928410;28;20059;-67
2022/01/07 08:58:03;;;;;;;17.17;8.30;;;;;;;0.36;97.68;96913.97;4904452;29;20056;-64
2022/01/07 09:00:29;;;;;;;14.45;7.97;;;;;;;0.99;90.26;96920.69;4901542;29;20052;-64
2022/01/07 09:02:55;;;;;;;16.33;7.32;;;;;;;0.87;88.04;96907.69;4903584;29;20131;-65
2022/01/07 09:05:20;;;;;;;16.30;7.65;;;;;;;1.01;88.91;96896.09;4898024;29;20127;-68
2022/01/07 09:07:46;;;;;;;15.18;7.55;;;;;;;1.10;87.84;96905.91;4905260;29;20469;-68
2022/01/07 09:10:11;;;;;;;12.82;7.35;;;;;;;2.03;84.42;96912.03;4913387;29;20063;-65
2022/01/07 09:12:36;;;;;;;15.52;7.10;;;;;;;1.89;80.35;96904.78;4904332;29;20051;-63
2022/01/07 09:15:02;;;;;;;13.10;6.93;;;;;;;1.76;81.66;96891.31;4904586;29;20488;-66
2022/01/07 09:17:30;;;;;;;10.45;6.45;;;;;;;1.75;80.91;96897.78;4901061;29;20052;-66
2022/01/07 09:19:55;;;;;;;8.77;5.40;;;;;;;1.29;80.85;96897.66;4902499;29;20059;-62
2022/01/07 09:22:21;;;;;;;9.55;5.30;;;;;;;0.92;83.61;96894.09;4899577;29;20048;-66
2022/01/07 09:24:46;;;;;;;13.02;6.00;;;;;;;0.84;81.54;96894.00;4903786;29;20056;-65
2022/01/07 09:27:12;;;;;;;14.00;6.30;;;;;;;0.88;83.35;96895.00;4895013;29;20489;-67
2022/01/07 09:29:37;;;;;;;9.18;4.90;;;;;;;0.96;81.55;96894.31;4904177;29;20130;-64
2022/01/07 09:32:03;;;;;;;19.52;6.88;;;;;;;1.28;80.34;96895.31;4900958;29;20134;-62
2022/01/07 09:34:28;;;;;;;11.27;5.50;;;;;;;1.51;79.27;96888.03;4901260;29;20044;-66
2022/01/07 09:36:54;;;;;;;9.32;4.65;;;;;;;1.71;77.87;96881.41;4901851;29;20139;-65
2022/01/07 09:39:19;;;;;;;14.30;4.85;;;;;;;1.71;77.99;96884.09;4898523;28;20150;-65
2022/01/07 09:41:46;;;;;;;8.77;3.65;;;;;;;1.76;77.23;96881.28;4916401;28;20074;-68
2022/01/07 09:44:12;;;;;;;12.80;4.85;;;;;;;1.45;78.15;96879.25;4898064;29;20098;-68
2022/01/07 09:46:39;;;;;;;13.20;4.65;;;;;;;1.61;78.34;96882.44;4903755;29;20446;-68
2022/01/07 09:49:05;;;;;;;9.68;4.85;;;;;;;1.44;79.54;96880.38;4899432;29;20087;-65
2022/01/07 09:51:31;;;;;;;16.10;5.68;;;;;;;1.36;77.89;96889.19;4902042;29;20080;-66
2022/01/07 09:53:57;;;;;;;7.47;3.63;;;;;;;1.21;78.04;96879.50;4902329;29;20091;-66
2022/01/07 09:56:22;;;;;;;7.95;3.83;;;;;;;1.10;78.70;96875.44;4896376;29;20048;-65
2022/01/07 09:58:49;;;;;;;7.13;3.95;;;;;;;1.04;79.26;96877.41;4926908;29;20071;-65
2022/01/07 10:01:19;;;;;;;5.90;3.60;;;;;;;1.07;79.74;96881.41;4904333;29;20071;-66
2022/01/07 10:03:45;;;;;;;6.07;3.92;;;;;;;1.01;79.58;96872.63;4895829;29;20102;-66
2022/01/07 10:06:23;;;;;;;9.30;3.92;;;;;;;0.90;81.29;96876.59;4896405;29;20506;-66
2022/01/07 10:09:10;;;;;;;6.63;3.88;;;;;;;0.80;81.72;96876.81;4901236;29;20099;-65
2022/01/07 10:11:37;;;;;;;10.20;7.22;;;;;;;1.05;81.93;96876.31;4901472;29;20044;-66
2022/01/07 10:14:18;;;;;;;7.25;3.88;;;;;;;1.19;81.65;96878.19;4901175;29;20480;-62
2022/01/07 10:16:55;;;;;;;6.57;3.90;;;;;;;1.17;79.56;96869.59;4903171;29;20044;-67
2022/01/07 10:19:49;;;;;;;8.88;4.15;;;;;;;1.15;80.81;96869.91;4896689;29;20523;-68
2022/01/07 10:22:15;;;;;;;13.10;4.78;;;;;;;1.30;79.57;96872.31;4898356;29;20055;-69
2022/01/07 10:24:59;;;;;;;8.80;4.30;;;;;;;1.23;77.36;96869.22;4901413;29;20696;-67
2022/01/07 10:27:36;;;;;;;9.68;4.82;;;;;;;1.39;77.34;96868.88;4899548;29;20375;-69
2022/01/07 10:30:12;;;;;;;8.60;4.82;;;;;;;1.07;79.12;96863.31;4903580;29;20574;-65
2022/01/07 10:32:38;;;;;;;9.90;5.00;;;;;;;1.23;78.34;96863.03;4906454;28;20048;-67
2022/01/07 10:35:11;;;;;;;8.43;4.70;;;;;;;1.51;76.37;96867.28;4906034;29;20135;-64
2022/01/07 10:37:46;;;;;;;9.07;4.90;;;;;;;1.27;76.58;96862.09;4906303;29;20052;-68
2022/01/07 10:40:30;;;;;;;10.82;4.78;;;;;;;1.11;78.17;96861.63;4906880;29;20096;-67
2022/01/07 10:43:07;;;;;;;12.38;5.93;;;;;;;1.26;76.77;96863.22;4909077;29;20043;-67
2022/01/07 10:45:32;;;;;;;8.50;4.88;;;;;;;1.51;77.29;96858.34;4908530;29;20119;-68
2022/01/07 10:47:58;;;;;;;8.98;4.80;;;;;;;1.42;77.12;96855.56;4909958;29;20474;-67
2022/01/07 10:50:24;;;;;;;8.88;4.80;;;;;;;1.49;75.71;96847.06;4904424;28;20433;-66
2022/01/07 10:52:50;;;;;;;10.27;5.18;;;;;;;1.54;77.44;96838.84;4911303;29;20471;-67
2022/01/07 10:55:20;;;;;;;9.27;5.85;;;;;;;1.49;80.37;96836.25;4902067;29;20523;-66
2022/01/07 10:57:50;;;;;;;10.77;5.97;;;;;;;0.85;82.77;96826.28;4906396;29;20040;-69
2022/01/07 11:00:21;;;;;;;9.63;5.40;;;;;;;1.19;81.36;96832.31;4902119;29;20112;-69
2022/01/07 11:02:47;;;;;;;13.35;5.53;;;;;;;1.43;78.03;96830.19;4919043;28;20405;-65
2022/01/07 11:05:13;;;;;;;13.45;5.85;;;;;;;1.59;78.42;96827.94;4902126;29;20052;-69
2022/01/07 11:07:39;;;;;;;15.10;7.03;;;;;;;1.65;78.36;96832.13;4908751;29;20052;-67
2022/01/07 11:10:07;;;;;;;13.98;6.43;;;;;;;1.73;81.01;96819.81;4901278;29;20040;-70
2022/01/07 11:12:34;;;;;;;13.10;6.65;;;;;;;1.73;79.78;96827.91;4907695;29;20052;-66
2022/01/07 11:15:05;;;;;;;11.18;5.95;;;;;;;1.75;81.17;96822.19;4907050;29;20055;-66
2022/01/07 11:17:31;;;;;;;10.43;5.45;;;;;;;2.17;78.78;96818.19;4918824;29;20103;-67
2022/01/07 11:20:01;;;;;;;10.07;5.60;;;;;;;2.31;77.05;96812.72;4906528;29;20504;-67
2022/01/07 11:22:28;;;;;;;10.52;5.82;;;;;;;2.22;79.95;96804.53;4902303;29;20048;-67
2022/01/07 11:24:56;;;;;;;9.15;5.32;;;;;;;2.14;79.08;96802.56;4906012;29;20470;-67
2022/01/07 11:27:26;;;;;;;12.02;5.38;;;;;;;2.44;80.09;96795.59;4901182;29;20595;-69